Time;durP1;ratioP1;P1;durP2;ratioP2;P2;SDS_P1;SDS_P2;PMS_P1;PMS_P2;Temp;Humidity;BMP_temperature;BMP_pressure;BME280_temperature;BME280_humidity;BME280_pressure;Samples;Min_cycle;Max_cycle;Signal;HPM_P1;HPM_P2
2022/12/28 00:01:28;;;;;;;2.33;0.88;;;20.40;36.50;;;;;;5053442;28;20017;-53
2022/12/28 00:03:57;;;;;;;2.17;0.70;;;20.40;36.50;;;;;;5054344;28;20029;-55
2022/12/28 00:06:24;;;;;;;2.70;0.73;;;20.40;36.60;;;;;;5052485;28;20025;-56
2022/12/28 00:08:53;;;;;;;1.67;0.73;;;20.40;36.60;;;;;;5053625;28;20367;-54
2022/12/28 00:11:21;;;;;;;1.80;0.73;;;20.30;36.60;;;;;;5036230;28;20017;-54
2022/12/28 00:13:47;;;;;;;1.67;0.70;;;20.40;36.70;;;;;;5053455;28;20088;-56
2022/12/28 00:16:26;;;;;;;1.65;0.90;;;20.40;36.70;;;;;;5053643;28;20340;-54
2022/12/28 00:18:53;;;;;;;1.30;0.65;;;20.40;36.80;;;;;;5053242;28;20044;-57
2022/12/28 00:21:19;;;;;;;3.28;0.80;;;20.30;36.70;;;;;;5052309;28;20031;-55
2022/12/28 00:23:49;;;;;;;2.15;1.00;;;20.30;36.80;;;;;;5053378;28;20029;-55
2022/12/28 00:26:15;;;;;;;2.60;1.17;;;20.30;36.80;;;;;;5051862;28;20056;-57
2022/12/28 00:28:41;;;;;;;1.48;0.80;;;20.30;36.80;;;;;;5035918;28;20040;-56
2022/12/28 00:31:07;;;;;;;1.40;0.90;;;20.30;36.90;;;;;;5051424;28;20016;-55
2022/12/28 00:33:33;;;;;;;1.95;0.90;;;20.30;36.90;;;;;;5035845;28;20083;-56
2022/12/28 00:36:00;;;;;;;1.85;0.73;;;20.30;36.90;;;;;;5035963;28;20033;-53
2022/12/28 00:38:28;;;;;;;1.60;0.70;;;20.30;37.00;;;;;;5018194;28;20025;-55
2022/12/28 00:40:54;;;;;;;2.13;0.68;;;20.30;37.60;;;;;;5033639;28;20363;-54
2022/12/28 00:43:20;;;;;;;1.98;0.90;;;20.30;37.00;;;;;;5019175;28;20047;-54
2022/12/28 00:45:47;;;;;;;1.77;0.80;;;20.20;37.00;;;;;;5053305;28;20087;-52
2022/12/28 00:48:14;;;;;;;3.25;0.88;;;20.30;37.10;;;;;;5034437;28;20044;-55
2022/12/28 00:50:41;;;;;;;1.02;0.52;;;20.30;37.10;;;;;;5050875;28;20033;-55
2022/12/28 00:53:09;;;;;;;1.65;0.60;;;20.20;37.10;;;;;;5054752;28;20059;-53
2022/12/28 00:55:36;;;;;;;2.22;0.88;;;20.20;37.10;;;;;;5035381;28;20460;-53
2022/12/28 00:58:05;;;;;;;1.77;0.88;;;20.20;37.20;;;;;;5052910;28;20167;-54
2022/12/28 01:00:32;;;;;;;1.40;0.75;;;20.20;37.20;;;;;;5053651;28;20078;-55
2022/12/28 01:02:58;;;;;;;2.33;0.88;;;20.20;37.20;;;;;;5035970;28;20452;-56
2022/12/28 01:05:24;;;;;;;1.85;0.80;;;20.20;37.20;;;;;;5053977;28;20039;-54
2022/12/28 01:07:50;;;;;;;1.90;0.80;;;20.20;37.30;;;;;;5052149;28;20479;-56
2022/12/28 01:10:16;;;;;;;1.20;0.70;;;20.20;37.30;;;;;;5052104;28;20056;-57
2022/12/28 01:12:42;;;;;;;2.10;0.85;;;20.20;37.30;;;;;;5052200;28;20029;-56
2022/12/28 01:15:13;;;;;;;1.45;0.82;;;20.20;37.30;;;;;;5033375;28;20052;-54
2022/12/28 01:17:40;;;;;;;1.88;0.73;;;20.20;37.40;;;;;;5051216;28;20068;-56
2022/12/28 01:20:07;;;;;;;2.00;0.80;;;20.10;37.30;;;;;;5052431;28;20071;-53
2022/12/28 01:22:32;;;;;;;2.72;1.02;;;20.10;37.30;;;;;;5052472;28;20456;-55
2022/12/28 01:24:58;;;;;;;1.27;0.80;;;20.10;37.30;;;;;;5052548;28;20063;-56
2022/12/28 01:27:24;;;;;;;2.20;0.90;;;20.10;37.30;;;;;;5051530;28;20033;-54
2022/12/28 01:29:50;;;;;;;1.25;0.70;;;20.10;37.40;;;;;;5034372;28;20427;-51
2022/12/28 01:32:16;;;;;;;2.38;0.70;;;20.10;37.40;;;;;;5052488;28;20067;-53
2022/12/28 01:34:41;;;;;;;1.50;0.80;;;20.10;37.40;;;;;;5051456;28;20349;-52
2022/12/28 01:37:11;;;;;;;3.45;0.80;;;20.10;37.50;;;;;;5051520;28;20032;-53
2022/12/28 01:39:37;;;;;;;1.52;0.77;;;20.10;37.50;;;;;;5050438;28;20024;-54
2022/12/28 01:42:02;;;;;;;2.40;0.75;;;20.10;37.50;;;;;;5052212;28;20029;-53
2022/12/28 01:44:41;;;;;;;3.28;0.75;;;20.10;37.50;;;;;;5033814;28;20033;-53
2022/12/28 01:47:14;;;;;;;1.88;0.70;;;20.10;37.50;;;;;;5050337;28;20492;-54
2022/12/28 01:49:51;;;;;;;1.08;0.52;;;20.00;37.50;;;;;;5034046;28;20083;-55
2022/12/28 01:52:45;;;;;;;1.50;0.70;;;20.00;37.50;;;;;;5032545;28;20357;-55
2022/12/28 01:55:18;;;;;;;1.48;0.63;;;20.10;37.60;;;;;;5049726;28;20053;-53
2022/12/28 01:58:02;;;;;;;2.20;0.70;;;20.00;37.60;;;;;;5054978;28;20119;-52
2022/12/28 02:00:28;;;;;;;2.42;0.60;;;20.00;37.60;;;;;;5033654;28;20045;-53
2022/12/28 02:02:58;;;;;;;2.00;0.80;;;20.00;37.60;;;;;;5050827;28;20044;-50
2022/12/28 02:05:32;;;;;;;1.45;0.60;;;20.00;37.70;;;;;;5051658;28;20025;-51
2022/12/28 02:08:17;;;;;;;1.52;0.68;;;20.00;37.70;;;;;;5050840;28;20091;-56
2022/12/28 02:10:45;;;;;;;1.60;0.65;;;20.00;37.70;;;;;;5049369;28;20024;-53
2022/12/28 02:13:13;;;;;;;0.95;0.55;;;20.00;37.70;;;;;;5051029;28;20025;-53
2022/12/28 02:15:39;;;;;;;1.27;0.70;;;19.90;37.70;;;;;;5032901;28;20139;-55
2022/12/28 02:18:05;;;;;;;1.02;0.60;;;20.00;38.40;;;;;;5049562;28;20049;-54
2022/12/28 02:21:00;;;;;;;2.58;0.77;;;20.00;37.80;;;;;;5033472;28;20048;-51
2022/12/28 02:23:33;;;;;;;2.35;0.90;;;20.00;37.90;;;;;;5050169;28;20048;-55
2022/12/28 02:26:23;;;;;;;2.30;0.90;;;19.90;37.80;;;;;;5050524;28;20425;-54
2022/12/28 02:28:58;;;;;;;1.88;0.85;;;19.90;37.90;;;;;;5031615;28;20033;-54
2022/12/28 02:31:35;;;;;;;2.00;0.77;;;19.90;37.90;;;;;;5051324;28;20035;-55
2022/12/28 02:34:01;;;;;;;3.22;1.15;;;19.90;37.90;;;;;;5048572;28;20057;-55
2022/12/28 02:36:35;;;;;;;1.30;0.70;;;19.90;38.00;;;;;;5053160;28;20040;-55
2022/12/28 02:39:22;;;;;;;1.13;0.70;;;19.90;38.00;;;;;;5052445;28;20031;-52
2022/12/28 02:41:49;;;;;;;1.00;0.60;;;19.90;38.00;;;;;;5033297;28;20032;-56
2022/12/28 02:50:04;;;;;;;1.42;0.65;;;19.90;38.10;;;;;;5032495;28;20352;-55
2022/12/28 02:50:05;;;;;;;1.20;0.70;;;19.90;38.10;;;;;;5048776;28;20020;-53
2022/12/28 02:52:52;;;;;;;2.08;0.68;;;19.90;38.20;;;;;;5050165;28;20356;-52
2022/12/28 02:58:51;;;;;;;1.17;0.60;;;19.90;38.30;;;;;;5033147;28;20021;-56
2022/12/28 03:01:29;;;;;;;1.73;0.70;;;19.90;38.30;;;;;;5042666;28;20060;-52
2022/12/28 03:04:16;;;;;;;2.00;0.70;;;19.80;38.30;;;;;;5049946;28;20044;-56
2022/12/28 03:09:45;;;;;;;2.60;0.52;;;19.80;38.50;;;;;;5032248;28;20035;-57
2022/12/28 03:12:27;;;;;;;1.25;0.60;;;19.80;38.60;;;;;;5029793;28;20508;-52
2022/12/28 03:15:02;;;;;;;1.05;0.60;;;19.80;38.70;;;;;;5033582;28;20040;-55
2022/12/28 03:31:36;;;;;;;1.92;0.70;;;19.70;39.00;;;;;;5031710;28;20033;-53
2022/12/28 03:34:06;;;;;;;1.63;0.80;;;19.70;39.00;;;;;;5046492;28;20063;-52
2022/12/28 03:36:47;;;;;;;0.98;0.77;;;19.70;39.10;;;;;;5031559;28;20037;-50
2022/12/28 03:39:22;;;;;;;1.70;0.70;;;19.70;39.20;;;;;;5031092;28;20448;-52
2022/12/28 03:44:51;;;;;;;1.15;0.70;;;19.70;39.30;;;;;;5032765;28;20400;-56
2022/12/28 03:47:19;;;;;;;0.75;0.52;;;19.70;39.30;;;;;;5047511;28;20025;-53
2022/12/28 03:49:45;;;;;;;1.20;0.52;;;19.70;39.40;;;;;;5031477;28;20021;-52
2022/12/28 03:52:11;;;;;;;0.90;0.50;;;19.70;39.40;;;;;;5031225;28;20330;-55
2022/12/28 03:54:39;;;;;;;1.30;0.70;;;19.70;39.50;;;;;;5048297;28;20037;-55
2022/12/28 03:57:06;;;;;;;2.05;0.90;;;19.70;39.50;;;;;;5031423;28;20126;-54
2022/12/28 03:59:37;;;;;;;1.40;0.70;;;19.70;39.60;;;;;;5032023;28;20033;-55
2022/12/28 04:02:04;;;;;;;2.17;0.85;;;19.70;39.60;;;;;;5031042;28;20024;-56
2022/12/28 04:04:31;;;;;;;1.00;0.60;;;19.70;39.60;;;;;;5031306;28;20368;-55
2022/12/28 04:06:57;;;;;;;0.93;0.60;;;19.70;39.70;;;;;;5048604;28;20021;-56
2022/12/28 04:09:23;;;;;;;1.08;0.50;;;19.70;39.70;;;;;;5030782;28;20036;-55
2022/12/28 04:11:49;;;;;;;1.67;0.70;;;19.70;39.80;;;;;;5032015;28;20041;-55
2022/12/28 04:14:22;;;;;;;1.33;0.60;;;19.60;39.70;;;;;;5030725;28;20021;-56
2022/12/28 04:16:48;;;;;;;1.27;0.75;;;19.60;39.80;;;;;;5031988;28;20040;-56
2022/12/28 04:19:16;;;;;;;1.50;0.60;;;19.70;39.90;;;;;;5030383;28;20025;-50
2022/12/28 04:21:43;;;;;;;0.98;0.60;;;19.60;39.90;;;;;;5027331;28;20060;-53
2022/12/28 04:24:09;;;;;;;1.70;0.65;;;19.70;40.00;;;;;;5015022;28;20025;-52
2022/12/28 04:26:35;;;;;;;1.00;0.40;;;19.60;40.00;;;;;;5033562;28;20049;-56
2022/12/28 04:29:01;;;;;;;1.10;0.70;;;19.60;40.10;;;;;;5030364;28;20068;-54
2022/12/28 04:31:37;;;;;;;1.13;0.50;;;19.60;40.10;;;;;;5035004;28;20466;-54
2022/12/28 04:34:11;;;;;;;1.33;0.60;;;19.60;40.20;;;;;;5031503;28;20368;-54
2022/12/28 04:36:41;;;;;;;0.90;0.50;;;19.60;40.20;;;;;;5031972;28;20057;-54
2022/12/28 04:39:11;;;;;;;1.08;0.60;;;19.60;40.30;;;;;;5031352;28;20029;-56
2022/12/28 04:41:39;;;;;;;0.93;0.45;;;19.60;40.30;;;;;;5048758;28;20360;-50
2022/12/28 04:44:05;;;;;;;0.93;0.63;;;19.60;40.40;;;;;;5049055;28;20563;-54
2022/12/28 04:46:31;;;;;;;0.73;0.50;;;19.60;40.40;;;;;;5035462;28;20051;-54
2022/12/28 04:48:57;;;;;;;0.60;0.40;;;19.60;40.50;;;;;;5052513;28;20043;-49
2022/12/28 04:51:25;;;;;;;1.42;0.65;;;19.60;40.50;;;;;;5033776;28;20029;-52
2022/12/28 04:53:52;;;;;;;1.10;0.60;;;19.60;40.50;;;;;;5051947;28;20036;-54
2022/12/28 04:56:20;;;;;;;1.10;0.60;;;19.60;40.60;;;;;;5051466;28;20041;-55
2022/12/28 04:58:46;;;;;;;1.08;0.43;;;19.60;40.60;;;;;;5053174;28;20079;-53
2022/12/28 05:01:15;;;;;;;0.98;0.60;;;19.60;40.70;;;;;;5052859;28;20036;-52
2022/12/28 05:03:43;;;;;;;1.23;0.52;;;19.60;40.70;;;;;;5053222;28;20031;-55
2022/12/28 05:06:17;;;;;;;0.68;0.60;;;19.60;40.80;;;;;;5051557;28;20065;-54
2022/12/28 05:08:44;;;;;;;1.17;0.70;;;19.60;40.80;;;;;;5052104;28;20035;-56
2022/12/28 05:11:13;;;;;;;1.02;0.55;;;19.60;40.90;;;;;;5051972;28;20063;-57
2022/12/28 05:13:39;;;;;;;1.10;0.50;;;19.60;40.90;;;;;;5050657;28;20067;-51
2022/12/28 05:16:07;;;;;;;0.85;0.50;;;19.60;41.00;;;;;;5052108;28;20559;-55
2022/12/28 05:18:33;;;;;;;0.85;0.60;;;19.60;41.00;;;;;;5051992;28;20040;-50
2022/12/28 05:21:08;;;;;;;0.77;0.55;;;19.50;41.00;;;;;;5051563;28;20021;-53
2022/12/28 05:23:36;;;;;;;1.13;0.50;;;19.50;41.10;;;;;;5052366;28;20025;-52
2022/12/28 05:26:03;;;;;;;1.08;0.55;;;19.50;41.10;;;;;;5033488;28;20025;-53
2022/12/28 05:28:29;;;;;;;0.90;0.70;;;19.50;41.10;;;;;;5050384;28;20028;-54
2022/12/28 05:31:03;;;;;;;0.95;0.55;;;19.50;41.20;;;;;;5051418;28;20025;-54
2022/12/28 05:33:30;;;;;;;0.73;0.50;;;19.50;41.20;;;;;;5031770;28;20021;-51
2022/12/28 05:36:01;;;;;;;0.93;0.63;;;19.50;41.30;;;;;;5053831;28;20068;-49
2022/12/28 05:38:27;;;;;;;0.77;0.50;;;19.50;41.30;;;;;;5051708;28;20056;-55
2022/12/28 05:40:53;;;;;;;1.05;0.50;;;19.50;41.30;;;;;;5050616;28;20029;-54
2022/12/28 05:43:18;;;;;;;0.98;0.47;;;19.50;41.40;;;;;;5034247;28;20025;-56
2022/12/28 05:45:44;;;;;;;1.08;0.50;;;19.50;41.40;;;;;;5051497;28;20058;-55
2022/12/28 05:48:10;;;;;;;1.15;0.73;;;19.50;41.50;;;;;;5051785;28;20048;-55
2022/12/28 05:50:36;;;;;;;0.93;0.50;;;19.50;41.50;;;;;;5051708;28;20059;-52
2022/12/28 05:53:02;;;;;;;1.23;0.60;;;19.50;41.60;;;;;;5050242;28;20017;-53
2022/12/28 05:55:27;;;;;;;0.90;0.50;;;19.50;41.60;;;;;;5051835;28;20033;-55
2022/12/28 05:57:54;;;;;;;1.88;0.55;;;19.50;41.60;;;;;;5050705;28;20385;-53
2022/12/28 06:00:21;;;;;;;1.23;0.40;;;19.50;41.70;;;;;;5051813;28;20024;-52
2022/12/28 06:02:46;;;;;;;0.95;0.50;;;19.40;41.60;;;;;;5049869;28;20033;-53
2022/12/28 06:05:13;;;;;;;1.58;0.60;;;19.50;41.80;;;;;;5051216;28;20044;-53
2022/12/28 06:07:39;;;;;;;1.40;0.70;;;19.50;41.80;;;;;;5050816;28;20029;-57
2022/12/28 06:10:05;;;;;;;0.80;0.50;;;19.40;41.80;;;;;;5051931;28;20025;-54
2022/12/28 06:12:31;;;;;;;0.73;0.43;;;19.40;41.80;;;;;;5052528;28;20096;-54
2022/12/28 06:14:57;;;;;;;1.52;0.52;;;19.40;41.90;;;;;;5032814;28;20590;-53
2022/12/28 06:17:22;;;;;;;0.80;0.40;;;19.50;42.00;;;;;;5050081;28;20053;-52
2022/12/28 06:19:48;;;;;;;1.15;0.52;;;19.40;41.90;;;;;;5051952;28;20360;-56
2022/12/28 06:22:14;;;;;;;0.60;0.40;;;19.40;42.00;;;;;;5051161;28;20222;-52
2022/12/28 06:24:40;;;;;;;0.68;0.50;;;19.40;42.00;;;;;;5051100;28;20118;-53
2022/12/28 06:27:05;;;;;;;0.75;0.40;;;19.40;42.10;;;;;;5050991;28;20021;-53
2022/12/28 06:29:31;;;;;;;1.17;0.40;;;19.40;42.10;;;;;;5050747;28;20040;-55
2022/12/28 06:31:59;;;;;;;0.30;0.30;;;19.40;42.20;;;;;;5033609;28;20110;-56
2022/12/28 06:34:26;;;;;;;0.55;0.40;;;19.40;42.20;;;;;;5051199;28;20374;-54
2022/12/28 06:36:52;;;;;;;0.90;0.50;;;19.40;42.20;;;;;;5050514;28;20353;-56
2022/12/28 06:39:18;;;;;;;0.85;0.47;;;19.40;42.30;;;;;;5051029;28;20016;-53
2022/12/28 06:41:44;;;;;;;0.30;0.30;;;19.40;42.30;;;;;;5049493;28;20044;-55
2022/12/28 06:44:11;;;;;;;1.05;0.40;;;19.40;42.30;;;;;;5051154;28;20440;-55
2022/12/28 06:46:38;;;;;;;0.88;0.50;;;19.40;42.40;;;;;;5050924;28;20030;-53
2022/12/28 06:49:04;;;;;;;0.80;0.50;;;19.40;42.50;;;;;;5050446;28;20076;-54
2022/12/28 06:51:37;;;;;;;0.50;0.40;;;19.40;42.50;;;;;;5048886;28;20029;-56
2022/12/28 06:54:03;;;;;;;0.85;0.40;;;19.40;43.10;;;;;;5051856;28;20036;-51
2022/12/28 06:56:32;;;;;;;0.85;0.40;;;19.40;42.60;;;;;;5050080;28;20049;-54
2022/12/28 06:58:58;;;;;;;1.10;0.40;;;19.40;42.60;;;;;;5049252;28;20064;-55
2022/12/28 07:01:26;;;;;;;1.20;0.40;;;19.40;42.70;;;;;;5050460;28;20043;-54
2022/12/28 07:03:55;;;;;;;0.52;0.30;;;19.40;42.70;;;;;;5049710;28;20035;-56
2022/12/28 07:06:23;;;;;;;0.77;0.38;;;19.40;42.70;;;;;;5049387;28;20453;-56
2022/12/28 07:08:50;;;;;;;0.75;0.38;;;19.40;42.80;;;;;;5050913;28;20047;-57
2022/12/28 07:11:19;;;;;;;0.30;0.30;;;19.40;42.80;;;;;;5049959;28;20035;-55
2022/12/28 07:13:44;;;;;;;0.93;0.40;;;19.40;42.80;;;;;;5048659;28;20318;-54
2022/12/28 07:16:13;;;;;;;0.63;0.30;;;19.30;42.80;;;;;;5052155;28;20052;-56
2022/12/28 07:18:40;;;;;;;1.08;0.40;;;19.40;42.90;;;;;;5050320;28;20476;-50
2022/12/28 07:21:12;;;;;;;0.73;0.40;;;19.30;42.90;;;;;;5048088;28;20025;-52
2022/12/28 07:23:38;;;;;;;1.15;0.40;;;19.30;43.00;;;;;;5048077;28;20444;-57
2022/12/28 07:26:15;;;;;;;2.03;0.98;;;19.30;43.00;;;;;;5031815;28;20035;-54
2022/12/28 07:28:44;;;;;;;3.53;0.80;;;19.30;43.00;;;;;;5060255;28;20028;-53
2022/12/28 07:31:13;;;;;;;2.08;0.65;;;19.30;43.10;;;;;;5054215;28;20089;-52
2022/12/28 07:33:40;;;;;;;2.30;0.63;;;19.30;43.10;;;;;;5045505;28;20039;-51
2022/12/28 07:36:09;;;;;;;2.13;0.73;;;19.30;43.10;;;;;;5047412;28;20055;-57
2022/12/28 07:38:34;;;;;;;2.80;0.90;;;19.30;43.20;;;;;;5049060;28;20037;-54
2022/12/28 07:41:02;;;;;;;2.85;0.80;;;19.40;43.30;;;;;;5050213;28;20356;-52
2022/12/28 07:43:29;;;;;;;3.80;0.95;;;19.30;43.20;;;;;;5050631;28;20440;-54
2022/12/28 07:46:04;;;;;;;2.70;0.68;;;19.40;43.30;;;;;;5050159;28;20025;-55
2022/12/28 07:48:34;;;;;;;1.95;0.65;;;19.40;43.30;;;;;;5051343;28;20104;-51
2022/12/28 07:51:09;;;;;;;1.75;0.57;;;19.40;43.30;;;;;;5031236;28;20036;-55
2022/12/28 07:53:36;;;;;;;3.88;1.13;;;19.40;43.30;;;;;;5046719;28;20056;-50
2022/12/28 07:56:02;;;;;;;4.53;1.00;;;19.50;43.30;;;;;;5050145;28;20134;-52
2022/12/28 07:58:28;;;;;;;2.28;0.82;;;19.50;43.30;;;;;;5050604;28;20032;-54
2022/12/28 08:01:01;;;;;;;0.95;0.43;;;19.60;43.30;;;;;;5052034;28;20035;-53
2022/12/28 08:03:34;;;;;;;2.08;0.75;;;19.60;43.30;;;;;;5049011;28;20032;-52
2022/12/28 08:06:12;;;;;;;3.10;0.90;;;19.70;43.30;;;;;;5034016;28;20029;-53
2022/12/28 08:08:40;;;;;;;1.40;0.75;;;19.70;43.30;;;;;;5034979;28;20025;-54
2022/12/28 08:11:10;;;;;;;2.25;0.80;;;19.80;43.20;;;;;;5046545;28;20040;-53
2022/12/28 08:13:38;;;;;;;3.03;1.02;;;19.90;43.10;;;;;;5050098;28;20489;-53
2022/12/28 08:16:05;;;;;;;2.30;0.90;;;20.00;43.10;;;;;;5052094;28;20134;-54
2022/12/28 08:18:31;;;;;;;3.60;1.30;;;20.10;43.10;;;;;;5049210;28;20041;-53
2022/12/28 08:21:06;;;;;;;2.35;1.02;;;20.10;43.00;;;;;;5055761;28;20154;-53
2022/12/28 08:23:32;;;;;;;4.32;1.13;;;20.20;42.90;;;;;;5057257;28;20029;-55
2022/12/28 08:26:14;;;;;;;3.83;0.90;;;20.30;42.90;;;;;;5056469;28;20021;-53
2022/12/28 08:28:41;;;;;;;3.53;0.98;;;20.40;42.80;;;;;;5051439;28;20048;-52
2022/12/28 08:31:10;;;;;;;2.80;0.82;;;20.40;42.70;;;;;;5053471;28;20116;-51
2022/12/28 08:33:36;;;;;;;5.32;1.10;;;20.50;42.70;;;;;;5049671;28;20461;-51
2022/12/28 08:36:05;;;;;;;4.70;0.90;;;20.50;42.60;;;;;;5060900;28;20041;-49
2022/12/28 08:38:31;;;;;;;4.45;1.17;;;20.60;42.50;;;;;;5055365;28;20033;-52
2022/12/28 08:40:59;;;;;;;3.10;0.85;;;20.70;42.50;;;;;;5055969;28;20029;-53
2022/12/28 08:43:30;;;;;;;1.73;0.60;;;20.70;42.30;;;;;;5056099;28;20452;-52
2022/12/28 08:46:00;;;;;;;2.53;1.00;;;20.80;42.20;;;;;;5054164;28;20431;-54
2022/12/28 08:48:27;;;;;;;1.65;0.65;;;20.90;42.20;;;;;;5051590;28;20060;-52
2022/12/28 08:50:53;;;;;;;2.83;0.80;;;20.90;42.10;;;;;;5046200;28;20112;-51
2022/12/28 08:53:25;;;;;;;2.30;0.82;;;21.00;42.00;;;;;;5052349;28;20021;-52
2022/12/28 08:55:53;;;;;;;1.85;0.88;;;21.10;42.00;;;;;;5051187;28;20036;-52
2022/12/28 08:58:24;;;;;;;1.83;0.63;;;21.20;42.00;;;;;;5064055;28;20036;-53
2022/12/28 09:00:51;;;;;;;2.05;0.68;;;21.20;41.90;;;;;;5056481;28;20047;-51
2022/12/28 09:03:18;;;;;;;1.52;0.70;;;21.20;41.80;;;;;;5051746;28;20025;-53
2022/12/28 09:05:44;;;;;;;0.95;0.50;;;21.30;41.70;;;;;;5053604;28;20449;-52
2022/12/28 09:08:10;;;;;;;1.70;0.60;;;21.40;41.70;;;;;;5052055;28;20048;-56
2022/12/28 09:10:35;;;;;;;2.17;0.63;;;21.40;41.70;;;;;;5051854;28;20033;-55
2022/12/28 09:13:01;;;;;;;4.32;1.23;;;21.40;41.70;;;;;;5031603;28;20045;-53
2022/12/28 09:15:27;;;;;;;7.07;2.40;;;21.50;41.90;;;;;;5053411;28;20037;-56
2022/12/28 09:17:53;;;;;;;6.97;2.42;;;21.60;42.30;;;;;;5051880;28;20041;-53
2022/12/28 09:20:19;;;;;;;5.43;1.85;;;21.60;43.00;;;;;;5047491;28;20025;-49
2022/12/28 09:22:45;;;;;;;5.82;1.88;;;21.70;42.80;;;;;;5057977;28;20056;-51
2022/12/28 09:25:10;;;;;;;4.43;1.70;;;21.70;42.80;;;;;;5055160;28;20342;-52
2022/12/28 09:27:36;;;;;;;4.78;1.30;;;21.80;42.70;;;;;;5055260;28;20108;-52
2022/12/28 09:30:03;;;;;;;3.10;1.40;;;21.90;42.60;;;;;;5054943;28;20025;-53
2022/12/28 09:32:29;;;;;;;3.65;1.10;;;21.90;43.00;;;;;;5054723;28;20039;-51
2022/12/28 09:34:54;;;;;;;2.95;0.90;;;21.90;42.20;;;;;;5054712;28;20028;-50
2022/12/28 09:37:20;;;;;;;2.22;1.20;;;21.90;42.10;;;;;;5054401;28;20039;-52
2022/12/28 09:39:47;;;;;;;2.08;0.90;;;22.00;42.00;;;;;;5055034;28;20025;-51
2022/12/28 09:42:22;;;;;;;2.40;0.90;;;22.10;41.90;;;;;;5054811;28;20106;-54
2022/12/28 09:45:05;;;;;;;2.80;1.08;;;22.10;41.70;;;;;;5055116;28;20028;-52
2022/12/28 09:47:36;;;;;;;2.83;1.10;;;22.10;41.60;;;;;;5054749;28;20033;-48
2022/12/28 09:50:17;;;;;;;2.65;1.00;;;22.20;41.50;;;;;;5054241;28;20029;-52
2022/12/28 09:52:46;;;;;;;1.40;0.82;;;22.20;41.40;;;;;;5054171;28;20456;-49
2022/12/28 09:55:18;;;;;;;2.65;0.80;;;22.20;41.30;;;;;;5055290;28;20037;-54
2022/12/28 09:57:53;;;;;;;1.98;0.63;;;22.30;41.30;;;;;;5053259;28;20083;-52
2022/12/28 10:00:37;;;;;;;2.75;0.90;;;22.20;41.10;;;;;;5054885;28;20112;-50
2022/12/28 10:03:09;;;;;;;2.17;0.63;;;22.30;41.10;;;;;;5054149;28;20118;-50
2022/12/28 10:05:35;;;;;;;2.17;0.70;;;22.30;41.00;;;;;;5054327;28;20119;-51
2022/12/28 10:08:02;;;;;;;2.05;0.70;;;22.30;41.00;;;;;;5054079;28;20108;-51
2022/12/28 10:10:28;;;;;;;2.22;0.73;;;22.40;41.00;;;;;;5054545;28;20029;-51
2022/12/28 10:12:57;;;;;;;1.52;0.90;;;22.40;40.90;;;;;;5054456;28;20025;-51
2022/12/28 10:15:26;;;;;;;1.70;0.68;;;22.40;40.80;;;;;;5051484;28;20040;-52
2022/12/28 10:17:52;;;;;;;1.70;0.75;;;22.40;40.80;;;;;;5036497;28;20052;-52
2022/12/28 10:20:20;;;;;;;2.08;0.73;;;22.40;40.70;;;;;;5054119;28;20028;-54
2022/12/28 10:22:54;;;;;;;1.65;0.70;;;22.50;40.70;;;;;;5054280;28;20025;-49
2022/12/28 10:25:23;;;;;;;3.03;0.82;;;22.50;40.60;;;;;;5054398;28;20033;-53
2022/12/28 10:27:51;;;;;;;1.95;0.98;;;22.50;40.60;;;;;;5053131;28;20057;-54
2022/12/28 10:30:19;;;;;;;1.73;0.70;;;22.50;40.60;;;;;;5054003;28;20025;-49
2022/12/28 10:32:52;;;;;;;1.10;0.50;;;22.50;40.60;;;;;;5050750;28;20460;-52
2022/12/28 10:35:24;;;;;;;1.10;0.50;;;22.50;40.50;;;;;;5053761;28;20076;-55
2022/12/28 10:37:51;;;;;;;1.25;0.60;;;22.50;40.50;;;;;;5035635;28;20043;-52
2022/12/28 10:40:26;;;;;;;1.52;0.63;;;22.50;40.50;;;;;;5036619;28;20108;-49
2022/12/28 10:42:54;;;;;;;1.00;0.45;;;22.50;40.50;;;;;;5050687;28;20037;-54
2022/12/28 10:45:24;;;;;;;1.70;0.65;;;22.50;40.50;;;;;;5054200;28;20478;-51
2022/12/28 10:47:52;;;;;;;1.55;0.50;;;22.50;40.50;;;;;;5053012;28;20047;-52
2022/12/28 10:51:11;;;;;;;1.23;0.30;;;22.50;40.50;;;;;;5052398;28;20020;-50
2022/12/28 10:54:21;;;;;;;2.42;0.60;;;22.50;40.40;;;;;;4944147;29;20471;-50
2022/12/28 10:56:48;;;;;;;1.08;0.30;;;22.50;40.40;;;;;;4945607;29;20097;-51
2022/12/28 10:59:19;;;;;;;0.82;0.50;;;22.50;40.40;;;;;;5041083;28;20045;-50
2022/12/28 11:01:44;;;;;;;1.15;0.45;;;22.50;40.40;;;;;;5051180;28;20075;-49
2022/12/28 11:04:22;;;;;;;1.50;0.35;;;22.50;40.40;;;;;;5053139;28;20118;-53
2022/12/28 11:06:54;;;;;;;1.08;0.52;;;22.50;40.40;;;;;;5033980;28;20025;-52
2022/12/28 11:09:21;;;;;;;2.25;0.60;;;22.50;40.40;;;;;;5053305;28;20449;-53
2022/12/28 11:11:49;;;;;;;0.60;0.35;;;22.50;40.50;;;;;;5052277;28;20032;-54
2022/12/28 11:14:33;;;;;;;1.60;0.50;;;22.50;40.40;;;;;;5053214;28;20104;-49
2022/12/28 11:17:16;;;;;;;0.70;0.30;;;22.50;40.40;;;;;;5051888;28;20041;-54
2022/12/28 11:19:42;;;;;;;1.20;0.57;;;22.50;40.40;;;;;;5045855;28;20766;-51
2022/12/28 11:22:11;;;;;;;1.55;0.50;;;22.50;40.50;;;;;;5050129;28;20025;-56
2022/12/28 11:24:39;;;;;;;3.75;0.47;;;22.50;40.40;;;;;;5050210;28;20025;-52
2022/12/28 11:27:08;;;;;;;1.88;0.57;;;22.50;40.50;;;;;;5052988;28;20159;-51
2022/12/28 11:29:34;;;;;;;1.75;0.30;;;22.50;40.50;;;;;;5050710;28;20040;-49
2022/12/28 11:32:07;;;;;;;0.55;0.35;;;22.50;40.50;;;;;;5052078;28;20021;-50
2022/12/28 11:34:36;;;;;;;0.50;0.38;;;22.50;40.50;;;;;;5052918;28;20356;-53
2022/12/28 11:37:02;;;;;;;0.65;0.30;;;22.50;40.60;;;;;;5050573;28;20033;-49
2022/12/28 11:39:29;;;;;;;0.60;0.32;;;22.50;40.60;;;;;;5049356;28;20031;-51
2022/12/28 11:41:57;;;;;;;1.00;0.35;;;22.60;40.70;;;;;;5050451;28;20029;-48
2022/12/28 11:44:47;;;;;;;0.80;0.40;;;22.50;40.60;;;;;;5044015;28;20057;-54
2022/12/28 11:47:16;;;;;;;0.40;0.20;;;22.60;40.60;;;;;;5045302;28;20037;-50
2022/12/28 11:49:44;;;;;;;0.88;0.40;;;22.60;40.60;;;;;;5049758;28;20478;-51
2022/12/28 11:52:16;;;;;;;0.38;0.22;;;22.60;40.60;;;;;;5051236;28;20730;-51
2022/12/28 11:54:58;;;;;;;0.60;0.30;;;22.60;40.60;;;;;;5048907;28;20452;-51
2022/12/28 11:57:36;;;;;;;0.32;0.20;;;22.60;40.60;;;;;;5054502;28;20033;-54
2022/12/28 12:00:37;;;;;;;0.88;0.30;;;22.60;40.60;;;;;;5051315;28;20029;-53
2022/12/28 12:03:04;;;;;;;0.65;0.28;;;22.60;40.50;;;;;;5002638;28;20143;-58
2022/12/28 12:05:36;;;;;;;1.40;0.60;;;22.60;40.50;;;;;;5051033;28;20044;-53
2022/12/28 12:08:22;;;;;;;0.32;0.25;;;22.60;40.50;;;;;;5052540;28;20024;-55
2022/12/28 12:11:17;;;;;;;0.43;0.35;;;22.60;40.50;;;;;;4998127;28;20090;-52
2022/12/28 12:13:46;;;;;;;0.57;0.22;;;22.60;40.50;;;;;;5050617;28;20037;-47
2022/12/28 12:16:21;;;;;;;0.77;0.30;;;22.70;40.60;;;;;;5048944;28;20132;-55
2022/12/28 12:18:58;;;;;;;0.38;0.30;;;22.60;40.50;;;;;;5051306;28;20110;-55
2022/12/28 12:21:28;;;;;;;0.40;0.28;;;22.70;40.60;;;;;;5050539;28;20040;-55
2022/12/28 12:24:04;;;;;;;0.73;0.30;;;22.70;40.60;;;;;;5033723;28;20037;-51
2022/12/28 12:26:45;;;;;;;0.40;0.25;;;22.70;40.50;;;;;;5051627;28;20091;-54
2022/12/28 12:29:34;;;;;;;0.85;0.40;;;22.60;40.50;;;;;;5052589;28;20033;-54
2022/12/28 12:32:06;;;;;;;0.55;0.38;;;22.60;40.50;;;;;;5033663;28;20029;-49
2022/12/28 12:34:46;;;;;;;1.40;0.40;;;22.70;40.60;;;;;;5038709;28;20427;-51
2022/12/28 12:37:42;;;;;;;0.90;0.45;;;22.70;40.60;;;;;;5058188;28;20495;-58
2022/12/28 12:40:08;;;;;;;0.90;0.47;;;22.60;40.80;;;;;;5034551;28;20115;-56
2022/12/28 12:42:49;;;;;;;1.38;0.50;;;22.70;40.80;;;;;;5051339;28;20171;-55
2022/12/28 12:45:52;;;;;;;1.40;0.70;;;22.70;40.70;;;;;;5048773;28;20018;-56
2022/12/28 12:48:45;;;;;;;1.63;0.50;;;22.80;40.50;;;;;;5045466;28;20029;-58
2022/12/28 12:51:17;;;;;;;2.00;0.43;;;22.80;40.20;;;;;;5046627;28;20040;-52
2022/12/28 12:53:53;;;;;;;1.42;0.40;;;22.90;40.80;;;;;;5046876;28;20094;-51
2022/12/28 12:56:32;;;;;;;1.75;0.52;;;23.00;40.10;;;;;;5052233;28;20060;-52
2022/12/28 12:59:26;;;;;;;0.30;0.30;;;23.00;39.90;;;;;;5052031;28;20072;-51
2022/12/28 13:02:06;;;;;;;1.27;0.50;;;23.10;39.60;;;;;;5051791;28;20029;-52
2022/12/28 13:04:34;;;;;;;0.52;0.40;;;23.20;39.50;;;;;;5052976;28;20392;-51
2022/12/28 13:07:04;;;;;;;0.73;0.50;;;23.20;39.30;;;;;;5055144;28;20033;-53
2022/12/28 13:09:37;;;;;;;1.10;0.50;;;23.30;39.10;;;;;;5047806;28;20053;-52
2022/12/28 13:12:13;;;;;;;0.63;0.45;;;23.30;39.00;;;;;;5053140;28;20043;-58
2022/12/28 13:14:50;;;;;;;0.88;0.60;;;23.30;38.80;;;;;;5036646;28;20025;-56
2022/12/28 13:17:20;;;;;;;2.13;0.38;;;23.40;38.80;;;;;;5047718;28;20373;-56
2022/12/28 13:19:47;;;;;;;0.98;0.52;;;23.40;38.70;;;;;;5052576;28;20021;-54
2022/12/28 13:22:32;;;;;;;1.45;0.70;;;23.50;38.70;;;;;;5042164;28;20175;-51
2022/12/28 13:24:59;;;;;;;0.30;0.30;;;23.50;38.60;;;;;;5026033;28;20036;-53
2022/12/28 13:27:32;;;;;;;0.93;0.40;;;23.50;38.50;;;;;;5051358;28;20033;-55
2022/12/28 13:30:00;;;;;;;0.75;0.40;;;23.50;38.40;;;;;;5053340;28;20025;-55
2022/12/28 13:32:28;;;;;;;1.00;0.50;;;23.50;38.30;;;;;;5054364;28;20554;-51